Castro Verd, Portugal
Current Conditions -  °F | °C
As of 3:00 PM on Friday 24 Oct 2014 (Local Time) from LPBJ Reporting Station
Clear Clear  
Wind Chill: 81°   Ceiling: Unl
Heat Index: 81°   Visibility: 6mi
Dew Point: 50°   Wind: 12mph
Humidity: 34%   Direction: 80°E
Pressure: 30"   Gusts: NA
Location:  37.7°N, 8.08°W
Report Text: LPBJ 241400Z 08010KT CAVOK 27/10 Q1016
Loading
Personal Weather Stations






























Interactive Weather Map New forecast layout! Learn more

10-Day Weather Forecast

Advertisements
Track Severe Weather on mobile